createdAt,value
2017-08-15T00:00:40.958Z,21.33
2017-08-15T00:03:08.347Z,21.32
2017-08-15T00:05:35.740Z,21.26
2017-08-15T00:08:03.123Z,21.23
2017-08-15T00:10:30.511Z,21.22
2017-08-15T00:12:57.900Z,21.29
2017-08-15T00:15:25.286Z,21.26
2017-08-15T00:17:52.678Z,21.20
2017-08-15T00:20:20.078Z,21.11
2017-08-15T00:22:47.467Z,21.23
2017-08-15T00:25:14.866Z,21.16
2017-08-15T00:27:42.269Z,21.12
2017-08-15T00:30:09.655Z,21.23
2017-08-15T00:32:37.046Z,21.25
2017-08-15T00:35:04.450Z,21.24
2017-08-15T00:37:31.842Z,21.39
2017-08-15T00:39:59.246Z,21.31
2017-08-15T00:42:26.622Z,21.36
2017-08-15T00:44:54.023Z,21.35
2017-08-15T00:47:21.451Z,21.37
2017-08-15T00:49:48.830Z,21.29
2017-08-15T00:52:16.220Z,21.27
2017-08-15T00:54:43.816Z,21.27
2017-08-15T00:57:11.210Z,21.20
2017-08-15T00:59:38.596Z,21.21
2017-08-15T01:02:05.991Z,21.30
2017-08-15T01:04:33.383Z,21.28
2017-08-15T01:07:00.920Z,21.19
2017-08-15T01:09:28.307Z,21.27
2017-08-15T01:11:55.699Z,21.26
2017-08-15T01:14:23.082Z,21.19
2017-08-15T01:16:50.506Z,21.14
2017-08-15T01:19:17.898Z,21.12
2017-08-15T01:21:45.290Z,21.06
2017-08-15T01:24:12.687Z,21.11
2017-08-15T01:26:40.089Z,21.15
2017-08-15T01:29:07.462Z,21.04
2017-08-15T01:31:34.867Z,20.93
2017-08-15T01:34:02.256Z,20.85
2017-08-15T01:36:29.645Z,20.83
2017-08-15T01:38:57.051Z,20.67
2017-08-15T01:41:24.434Z,20.65
2017-08-15T01:43:51.840Z,20.55
2017-08-15T01:46:19.230Z,20.53
2017-08-15T01:48:46.631Z,20.57
2017-08-15T01:51:14.037Z,20.34
2017-08-15T01:53:41.470Z,20.43
2017-08-15T01:56:08.858Z,20.35
2017-08-15T01:58:36.259Z,20.20
2017-08-15T02:01:03.652Z,20.26
2017-08-15T02:03:31.044Z,20.24
2017-08-15T02:05:58.430Z,20.29
2017-08-15T02:08:25.822Z,20.31
2017-08-15T02:10:53.206Z,20.30
2017-08-15T02:13:20.608Z,20.42
2017-08-15T02:15:47.987Z,20.36
2017-08-15T02:18:15.383Z,20.21
2017-08-15T02:20:42.778Z,20.15
2017-08-15T02:23:10.174Z,20.19
2017-08-15T02:25:37.555Z,20.03
2017-08-15T02:28:04.958Z,20.05
2017-08-15T02:30:32.570Z,20.08
2017-08-15T02:32:59.975Z,20.00
2017-08-15T02:35:27.356Z,19.92
2017-08-15T02:37:54.764Z,20.02
2017-08-15T02:40:22.155Z,20.04
2017-08-15T02:42:49.538Z,20.00
2017-08-15T02:45:16.941Z,19.92
2017-08-15T02:47:44.324Z,19.99
2017-08-15T02:50:11.718Z,19.99
2017-08-15T02:52:39.106Z,20.04
2017-08-15T02:55:06.503Z,19.96
2017-08-15T02:57:33.894Z,19.93
2017-08-15T03:00:01.283Z,19.97
2017-08-15T03:02:28.673Z,20.11
2017-08-15T03:04:56.062Z,19.99
2017-08-15T03:07:23.449Z,20.05
2017-08-15T03:09:50.842Z,20.05
2017-08-15T03:12:18.241Z,20.06
2017-08-15T03:14:45.634Z,20.05
2017-08-15T03:17:13.034Z,20.00
2017-08-15T03:19:40.439Z,20.03
2017-08-15T03:22:07.830Z,20.01
2017-08-15T03:24:35.223Z,20.10
2017-08-15T03:27:02.618Z,20.13
2017-08-15T03:29:30.016Z,20.09
2017-08-15T03:31:57.407Z,20.06
2017-08-15T03:34:24.790Z,20.03
2017-08-15T03:36:52.191Z,20.07
2017-08-15T03:39:19.572Z,20.07
2017-08-15T03:41:46.962Z,20.02
2017-08-15T03:44:14.352Z,20.15
2017-08-15T03:46:41.743Z,20.23
2017-08-15T03:49:09.154Z,20.27
2017-08-15T03:51:36.755Z,20.22
2017-08-15T03:54:04.147Z,20.24
2017-08-15T03:56:31.543Z,20.31
2017-08-15T03:58:58.939Z,20.23
2017-08-15T04:01:26.327Z,20.24
2017-08-15T04:03:53.715Z,20.16
2017-08-15T04:06:21.105Z,20.22
2017-08-15T04:08:48.655Z,20.35
2017-08-15T04:11:16.276Z,20.26
2017-08-15T04:13:43.666Z,20.31
2017-08-15T04:16:11.051Z,20.31
2017-08-15T04:18:38.451Z,20.17
2017-08-15T04:21:05.835Z,20.15
2017-08-15T04:23:33.256Z,20.09
2017-08-15T04:26:00.649Z,20.08
2017-08-15T04:28:28.079Z,19.95
2017-08-15T04:30:55.539Z,19.95
2017-08-15T04:33:22.975Z,19.99
2017-08-15T04:35:50.379Z,19.95
2017-08-15T04:38:17.771Z,19.96
2017-08-15T04:40:45.163Z,19.80
2017-08-15T04:43:12.563Z,19.83
2017-08-15T04:45:40.164Z,19.77
2017-08-15T04:48:07.569Z,19.70
2017-08-15T04:50:34.955Z,19.69
2017-08-15T04:53:02.356Z,19.76
2017-08-15T04:55:29.736Z,19.74
2017-08-15T04:57:57.143Z,19.87
2017-08-15T05:00:24.535Z,19.80
2017-08-15T05:02:51.951Z,19.82
2017-08-15T05:05:19.340Z,19.75
2017-08-15T05:07:46.733Z,19.80
2017-08-15T05:10:14.146Z,19.88
2017-08-15T05:12:41.535Z,20.00
2017-08-15T05:15:08.931Z,19.99
2017-08-15T05:17:36.315Z,20.04
2017-08-15T05:20:03.707Z,20.03
2017-08-15T05:22:31.106Z,20.07
2017-08-15T05:24:58.506Z,20.04
2017-08-15T05:27:25.891Z,19.96
2017-08-15T05:29:53.518Z,19.98
2017-08-15T05:32:21.117Z,19.93
2017-08-15T05:34:48.507Z,20.04
2017-08-15T05:37:15.897Z,19.90
2017-08-15T05:39:43.498Z,20.02
2017-08-15T05:42:10.892Z,20.05
2017-08-15T05:44:38.287Z,20.00
2017-08-15T05:47:05.679Z,20.08
2017-08-15T05:49:33.073Z,20.05
2017-08-15T05:52:00.683Z,20.07
2017-08-15T05:54:28.127Z,20.12
2017-08-15T05:56:55.531Z,20.09
2017-08-15T05:59:22.929Z,20.11
2017-08-15T06:01:50.332Z,20.17
2017-08-15T06:04:17.744Z,20.25
2017-08-15T06:06:45.379Z,20.33
2017-08-15T06:09:12.771Z,20.30
2017-08-15T06:11:40.172Z,20.45
2017-08-15T06:14:07.861Z,20.50
2017-08-15T06:16:35.255Z,20.36
2017-08-15T06:19:02.651Z,20.53
2017-08-15T06:21:30.039Z,20.55
2017-08-15T06:23:57.646Z,20.67
2017-08-15T06:26:25.051Z,20.75
2017-08-15T06:28:52.442Z,20.80
2017-08-15T06:31:19.838Z,20.84
2017-08-15T06:33:47.227Z,20.85
2017-08-15T06:36:14.631Z,20.96
2017-08-15T06:38:42.006Z,20.96
2017-08-15T06:41:09.399Z,20.99
2017-08-15T06:43:36.792Z,21.09
2017-08-15T06:46:04.211Z,21.22
2017-08-15T06:48:31.633Z,21.27
2017-08-15T06:50:59.226Z,21.27
2017-08-15T06:53:26.840Z,21.38
2017-08-15T06:55:54.452Z,21.48
2017-08-15T06:58:21.859Z,21.55
2017-08-15T07:00:49.246Z,21.65
2017-08-15T07:03:16.638Z,21.70
2017-08-15T07:05:44.034Z,21.84
2017-08-15T07:08:11.441Z,22.03
2017-08-15T07:10:38.831Z,22.15
2017-08-15T07:13:06.447Z,22.14
2017-08-15T07:15:33.838Z,22.19
2017-08-15T07:18:01.263Z,22.24
2017-08-15T07:20:28.654Z,22.35
2017-08-15T07:22:56.066Z,22.35
2017-08-15T07:25:23.443Z,22.44
2017-08-15T07:27:50.839Z,22.47
2017-08-15T07:30:18.222Z,22.61
2017-08-15T07:32:45.626Z,22.73
2017-08-15T07:35:13.028Z,22.81
2017-08-15T07:37:40.439Z,22.83
2017-08-15T07:40:07.831Z,22.91
2017-08-15T07:42:35.231Z,23.02
2017-08-15T07:45:02.838Z,23.13
2017-08-15T07:47:30.235Z,23.12
2017-08-15T07:49:57.632Z,23.14
2017-08-15T07:52:25.035Z,23.29
2017-08-15T07:54:52.447Z,23.42
2017-08-15T07:57:19.851Z,23.48
2017-08-15T07:59:47.232Z,23.55
2017-08-15T08:02:14.639Z,23.59
2017-08-15T08:04:42.027Z,23.67
2017-08-15T08:07:09.627Z,23.83
2017-08-15T08:09:37.023Z,23.85
2017-08-15T08:12:04.412Z,23.95
2017-08-15T08:14:31.806Z,24.17
2017-08-15T08:17:00.197Z,24.18
2017-08-15T08:19:27.586Z,24.22
2017-08-15T08:21:54.987Z,24.38
2017-08-15T08:24:22.598Z,24.48
2017-08-15T08:26:49.984Z,24.53
2017-08-15T08:29:17.404Z,24.59
2017-08-15T08:31:44.791Z,24.75
2017-08-15T08:34:12.223Z,24.90
2017-08-15T08:36:39.638Z,24.87
2017-08-15T08:39:07.031Z,24.90
2017-08-15T08:41:34.422Z,25.08
2017-08-15T08:44:01.821Z,25.22
2017-08-15T08:46:29.220Z,25.23
2017-08-15T08:48:56.619Z,25.36
2017-08-15T08:51:24.021Z,25.46
2017-08-15T08:53:51.427Z,25.61
2017-08-15T08:56:18.827Z,25.62
2017-08-15T08:58:46.434Z,25.74
2017-08-15T09:01:13.843Z,25.85
2017-08-15T09:03:41.233Z,25.85
2017-08-15T09:06:08.633Z,25.97
2017-08-15T09:08:36.026Z,26.05
2017-08-15T09:11:03.419Z,25.97
2017-08-15T09:13:30.805Z,26.02
2017-08-15T09:15:58.207Z,26.20
2017-08-15T09:18:25.590Z,26.21
2017-08-15T09:20:53.019Z,26.29
2017-08-15T09:23:20.415Z,26.40
2017-08-15T09:25:47.825Z,26.42
2017-08-15T09:28:15.231Z,26.56
2017-08-15T09:30:42.619Z,26.66
2017-08-15T09:33:10.050Z,26.78
2017-08-15T09:35:37.416Z,26.88
2017-08-15T09:38:04.823Z,27.00
2017-08-15T09:40:32.215Z,27.17
2017-08-15T09:43:00.374Z,27.28
2017-08-15T09:45:27.770Z,27.37
2017-08-15T09:47:55.160Z,27.43
2017-08-15T09:50:22.557Z,27.48
2017-08-15T09:52:49.948Z,27.59
2017-08-15T09:55:17.558Z,27.61
2017-08-15T09:57:44.975Z,27.56
2017-08-15T10:00:12.359Z,27.67
2017-08-15T10:02:39.750Z,27.70
2017-08-15T10:05:07.147Z,27.73
2017-08-15T10:07:34.567Z,27.86
2017-08-15T10:10:01.946Z,28.00
2017-08-15T10:12:29.332Z,28.23
2017-08-15T10:14:56.734Z,28.24
2017-08-15T10:17:24.164Z,28.33
2017-08-15T10:19:51.568Z,28.33
2017-08-15T10:22:18.950Z,28.45
2017-08-15T10:24:46.561Z,28.40
2017-08-15T10:27:13.947Z,28.40
2017-08-15T10:29:41.347Z,28.45
2017-08-15T10:32:08.746Z,28.47
2017-08-15T10:34:36.135Z,28.52
2017-08-15T10:37:03.535Z,28.53
2017-08-15T10:39:30.955Z,28.62
2017-08-15T10:41:58.346Z,28.68
2017-08-15T10:44:25.771Z,28.64
2017-08-15T10:46:53.167Z,28.73
2017-08-15T10:49:20.572Z,28.81
2017-08-15T10:51:47.966Z,28.81
2017-08-15T10:54:15.368Z,28.76
2017-08-15T10:56:42.764Z,28.92
2017-08-15T10:59:10.183Z,28.95
2017-08-15T11:01:37.581Z,29.00
2017-08-15T11:04:04.983Z,29.09
2017-08-15T11:06:32.375Z,29.16
2017-08-15T11:08:59.770Z,29.28
2017-08-15T11:11:27.383Z,29.32
2017-08-15T11:13:54.775Z,29.30
2017-08-15T11:16:22.391Z,29.23
2017-08-15T11:18:49.778Z,29.35
2017-08-15T11:21:17.179Z,29.28
2017-08-15T11:23:44.571Z,29.30
2017-08-15T11:26:11.978Z,29.28
2017-08-15T11:28:39.363Z,29.46
2017-08-15T11:31:06.802Z,29.58
2017-08-15T11:33:34.387Z,29.64
2017-08-15T11:36:01.787Z,29.59
2017-08-15T11:38:29.186Z,29.57
2017-08-15T11:40:56.579Z,29.54
2017-08-15T11:43:23.976Z,29.62
2017-08-15T11:45:51.371Z,29.58
2017-08-15T11:48:18.763Z,29.54
2017-08-15T11:50:46.374Z,29.67
2017-08-15T11:53:13.776Z,29.53
2017-08-15T11:55:41.177Z,29.54
2017-08-15T11:58:08.568Z,29.53
2017-08-15T12:00:35.965Z,29.47
2017-08-15T12:03:03.356Z,29.41
2017-08-15T12:05:30.752Z,29.40
2017-08-15T12:07:58.143Z,29.33
2017-08-15T12:10:25.536Z,29.36
2017-08-15T12:12:52.947Z,29.41
2017-08-15T12:15:20.535Z,29.53
2017-08-15T12:17:47.941Z,29.60
2017-08-15T12:20:15.324Z,29.59
2017-08-15T12:22:42.727Z,29.58
2017-08-15T12:25:10.114Z,29.59
2017-08-15T12:27:37.517Z,29.76
2017-08-15T12:30:04.913Z,29.83
2017-08-15T12:32:32.311Z,29.82
2017-08-15T12:34:59.690Z,29.77
2017-08-15T12:37:27.103Z,29.74
2017-08-15T12:39:54.494Z,29.80
2017-08-15T12:42:21.917Z,29.83
2017-08-15T12:44:49.304Z,29.87
2017-08-15T12:47:16.710Z,29.96
2017-08-15T12:49:44.096Z,29.78
2017-08-15T12:52:11.517Z,29.85
2017-08-15T12:54:38.919Z,29.96
2017-08-15T12:57:06.327Z,30.05
2017-08-15T12:59:33.738Z,29.95
2017-08-15T13:02:01.146Z,29.85
2017-08-15T13:04:28.541Z,29.98
2017-08-15T13:06:55.948Z,30.12
2017-08-15T13:09:23.359Z,30.18
2017-08-15T13:11:50.759Z,30.20
2017-08-15T13:14:18.147Z,30.24
2017-08-15T13:16:45.543Z,30.19
2017-08-15T13:19:13.151Z,30.21
2017-08-15T13:21:40.541Z,30.07
2017-08-15T13:24:07.935Z,30.15
2017-08-15T13:26:35.327Z,30.01
2017-08-15T13:29:02.747Z,29.95
2017-08-15T13:31:30.356Z,29.93
2017-08-15T13:33:57.746Z,29.86
2017-08-15T13:36:25.153Z,29.90
2017-08-15T13:38:52.563Z,29.91
2017-08-15T13:41:19.961Z,29.97
2017-08-15T13:43:47.351Z,29.97
2017-08-15T13:46:14.965Z,30.09
2017-08-15T13:48:42.575Z,30.18
2017-08-15T13:51:09.982Z,30.15
2017-08-15T13:53:37.362Z,30.20
2017-08-15T13:56:04.760Z,30.25
2017-08-15T13:58:32.371Z,30.25
2017-08-15T14:00:59.764Z,30.41
2017-08-15T14:03:27.170Z,30.47
2017-08-15T14:05:54.565Z,30.56
2017-08-15T14:08:21.957Z,30.65
2017-08-15T14:10:49.352Z,30.68
2017-08-15T14:13:16.747Z,30.76
2017-08-15T14:15:44.156Z,30.79
2017-08-15T14:18:11.543Z,30.85
2017-08-15T14:20:38.939Z,30.96
2017-08-15T14:23:06.340Z,31.02
2017-08-15T14:25:33.752Z,31.04
2017-08-15T14:28:01.377Z,31.01
2017-08-15T14:30:28.763Z,31.11
2017-08-15T14:32:56.151Z,31.18
2017-08-15T14:35:23.534Z,31.22
2017-08-15T14:37:50.931Z,31.27
2017-08-15T14:40:18.338Z,31.26
2017-08-15T14:42:45.736Z,31.33
2017-08-15T14:45:13.127Z,31.36
2017-08-15T14:47:40.527Z,31.38
2017-08-15T14:50:07.940Z,31.40
2017-08-15T14:52:35.343Z,31.48
2017-08-15T14:55:02.736Z,31.15
2017-08-15T14:57:30.139Z,31.22
2017-08-15T14:59:57.548Z,31.17
2017-08-15T15:02:24.945Z,31.12
2017-08-15T15:04:52.352Z,31.09
2017-08-15T15:07:19.744Z,31.22
2017-08-15T15:09:47.140Z,31.29
2017-08-15T15:12:14.546Z,31.29
2017-08-15T15:14:41.928Z,31.31
2017-08-15T15:17:09.323Z,31.15
2017-08-15T15:19:36.718Z,31.19
2017-08-15T15:22:04.099Z,31.15
2017-08-15T15:24:31.499Z,31.22
2017-08-15T15:26:58.883Z,31.37
2017-08-15T15:29:26.286Z,31.50
2017-08-15T15:31:53.715Z,31.36
2017-08-15T15:34:21.115Z,31.31
2017-08-15T15:36:48.718Z,31.21
2017-08-15T15:39:16.125Z,31.04
2017-08-15T15:41:43.516Z,31.11
2017-08-15T15:44:10.919Z,31.12
2017-08-15T15:46:38.302Z,31.07
2017-08-15T15:49:05.694Z,31.15
2017-08-15T15:51:33.088Z,31.05
2017-08-15T15:54:01.297Z,31.03
2017-08-15T15:56:28.679Z,31.06
2017-08-15T15:58:56.079Z,31.15
2017-08-15T16:01:23.471Z,31.10
2017-08-15T16:03:50.863Z,31.22
2017-08-15T16:06:18.246Z,31.20
2017-08-15T16:08:45.646Z,31.04
2017-08-15T16:11:13.254Z,31.01
2017-08-15T16:13:40.663Z,30.97
2017-08-15T16:16:08.047Z,30.82
2017-08-15T16:18:35.656Z,30.59
2017-08-15T16:21:03.051Z,30.54
2017-08-15T16:23:30.515Z,30.61
2017-08-15T16:25:58.171Z,30.58
2017-08-15T16:28:25.602Z,30.67
2017-08-15T16:30:53.008Z,30.62
2017-08-15T16:33:20.420Z,30.52
2017-08-15T16:35:47.815Z,30.43
2017-08-15T16:38:15.220Z,30.38
2017-08-15T16:40:42.603Z,30.34
2017-08-15T16:43:10.278Z,30.49
2017-08-15T16:45:37.953Z,30.27
2017-08-15T16:48:05.737Z,30.16
2017-08-15T16:50:33.798Z,30.25
2017-08-15T16:53:01.660Z,30.25
2017-08-15T16:55:29.124Z,30.28
2017-08-15T16:57:56.722Z,30.20
2017-08-15T17:00:24.135Z,30.39
2017-08-15T17:02:51.534Z,30.33
2017-08-15T17:05:18.928Z,30.34
2017-08-15T17:07:46.337Z,30.37
2017-08-15T17:10:13.715Z,30.41
2017-08-15T17:12:41.130Z,30.27
2017-08-15T17:15:08.668Z,30.29
2017-08-15T17:17:36.055Z,30.34
2017-08-15T17:20:03.451Z,30.32
2017-08-15T17:22:30.859Z,30.30
2017-08-15T17:24:58.239Z,30.26
2017-08-15T17:27:25.656Z,29.27
2017-08-15T17:29:53.055Z,28.70
2017-08-15T17:32:20.467Z,27.48
2017-08-15T17:34:47.859Z,26.00
2017-08-15T17:37:15.276Z,24.87
2017-08-15T17:39:42.671Z,24.39
2017-08-15T17:42:10.073Z,23.96
2017-08-15T17:44:37.467Z,23.81
2017-08-15T17:47:04.863Z,23.82
2017-08-15T17:49:32.266Z,23.94
2017-08-15T17:51:59.659Z,24.03
2017-08-15T17:54:27.071Z,24.33
2017-08-15T17:56:54.482Z,24.44
2017-08-15T17:59:21.883Z,24.48
2017-08-15T18:01:49.283Z,24.49
2017-08-15T18:04:16.690Z,24.37
2017-08-15T18:06:44.076Z,24.34
2017-08-15T18:09:11.459Z,24.32
2017-08-15T18:11:38.860Z,24.41
2017-08-15T18:14:06.255Z,24.24
2017-08-15T18:16:33.655Z,24.04
2017-08-15T18:19:01.074Z,23.94
2017-08-15T18:21:28.468Z,23.89
2017-08-15T18:23:57.436Z,23.93
2017-08-15T18:26:24.840Z,23.94
2017-08-15T18:28:52.451Z,23.90
2017-08-15T18:31:19.844Z,23.89
2017-08-15T18:33:47.459Z,23.84
2017-08-15T18:36:14.847Z,23.80
2017-08-15T18:38:42.235Z,23.71
2017-08-15T18:41:09.639Z,23.67
2017-08-15T18:43:37.036Z,23.66
2017-08-15T18:46:04.456Z,23.79
2017-08-15T18:48:31.835Z,23.94
2017-08-15T18:50:59.235Z,24.08
2017-08-15T18:53:26.631Z,24.29
2017-08-15T18:55:54.023Z,24.31
2017-08-15T18:58:21.420Z,24.04
2017-08-15T19:00:48.824Z,23.82
2017-08-15T19:03:16.221Z,23.70
2017-08-15T19:05:43.629Z,23.50
2017-08-15T19:08:11.017Z,23.27
2017-08-15T19:10:38.407Z,23.33
2017-08-15T19:13:06.018Z,23.21
2017-08-15T19:15:33.415Z,22.98
2017-08-15T19:18:00.825Z,22.73
2017-08-15T19:20:28.443Z,22.66
2017-08-15T19:22:55.841Z,22.67
2017-08-15T19:25:23.233Z,22.71
2017-08-15T19:27:50.836Z,22.68
2017-08-15T19:30:18.234Z,22.48
2017-08-15T19:32:46.722Z,22.31
2017-08-15T19:35:14.144Z,22.15
2017-08-15T19:37:41.547Z,22.17
2017-08-15T19:40:08.995Z,22.17
2017-08-15T19:42:36.395Z,22.07
2017-08-15T19:45:03.783Z,22.05
2017-08-15T19:47:31.403Z,22.04
2017-08-15T19:49:58.795Z,22.12
2017-08-15T19:52:26.227Z,22.08
2017-08-15T19:54:53.616Z,22.07
2017-08-15T19:57:21.132Z,22.17
2017-08-15T19:59:48.511Z,22.16
2017-08-15T20:02:16.719Z,22.30
2017-08-15T20:04:44.108Z,22.31
2017-08-15T20:07:11.783Z,22.52
2017-08-15T20:09:39.167Z,22.60
2017-08-15T20:12:06.562Z,22.55
2017-08-15T20:14:33.968Z,22.60
2017-08-15T20:17:01.612Z,22.74
2017-08-15T20:19:29.045Z,22.83
2017-08-15T20:21:56.443Z,22.98
2017-08-15T20:24:23.896Z,23.12
2017-08-15T20:26:51.333Z,23.15
2017-08-15T20:29:18.730Z,23.27
2017-08-15T20:31:46.118Z,23.42
2017-08-15T20:34:13.538Z,23.60
2017-08-15T20:36:40.936Z,23.54
2017-08-15T20:39:08.331Z,23.57
2017-08-15T20:41:35.750Z,23.53
2017-08-15T20:44:03.142Z,23.34
2017-08-15T20:46:30.537Z,23.40
2017-08-15T20:48:57.951Z,23.47
2017-08-15T20:51:25.332Z,23.33
2017-08-15T20:53:52.730Z,23.20
2017-08-15T20:56:20.140Z,23.10
2017-08-15T20:58:47.536Z,23.14
2017-08-15T21:01:14.933Z,23.33
2017-08-15T21:03:42.341Z,23.44
2017-08-15T21:06:09.723Z,23.47
2017-08-15T21:08:37.335Z,23.59
2017-08-15T21:11:04.733Z,23.66
2017-08-15T21:13:32.143Z,23.70
2017-08-15T21:15:59.532Z,23.68
2017-08-15T21:18:26.924Z,23.71
2017-08-15T21:20:54.323Z,23.62
2017-08-15T21:23:21.727Z,23.38
2017-08-15T21:25:49.118Z,23.36
2017-08-15T21:28:16.525Z,23.32
2017-08-15T21:30:43.908Z,23.43
2017-08-15T21:33:11.650Z,23.35
2017-08-15T21:35:39.392Z,23.47
2017-08-15T21:38:07.237Z,23.35
2017-08-15T21:40:34.924Z,23.40
2017-08-15T21:43:02.606Z,23.18
2017-08-15T21:45:30.250Z,22.54
2017-08-15T21:47:57.659Z,22.89
2017-08-15T21:50:25.051Z,22.66
2017-08-15T21:52:52.451Z,22.59
2017-08-15T21:55:19.844Z,22.80
2017-08-15T21:57:47.226Z,22.47
2017-08-15T22:00:14.631Z,22.32
2017-08-15T22:02:42.010Z,22.50
2017-08-15T22:05:09.403Z,22.66
2017-08-15T22:07:36.790Z,22.66
2017-08-15T22:10:04.178Z,22.75
2017-08-15T22:12:31.582Z,22.80
2017-08-15T22:14:59.181Z,22.91
2017-08-15T22:17:26.579Z,22.98
2017-08-15T22:19:53.970Z,23.09
2017-08-15T22:22:21.359Z,23.07
2017-08-15T22:24:48.767Z,23.07
2017-08-15T22:27:16.151Z,23.11
2017-08-15T22:29:43.544Z,23.08
2017-08-15T22:32:11.156Z,23.15
2017-08-15T22:34:38.603Z,22.97
2017-08-15T22:37:06.224Z,23.02
2017-08-15T22:39:33.624Z,22.83
2017-08-15T22:42:01.022Z,22.84
2017-08-15T22:44:28.431Z,22.88
2017-08-15T22:46:55.823Z,22.96
2017-08-15T22:49:23.215Z,22.86
2017-08-15T22:51:50.636Z,22.84
2017-08-15T22:54:18.024Z,22.90
2017-08-15T22:56:45.417Z,22.87
2017-08-15T22:59:12.803Z,22.99
2017-08-15T23:01:40.192Z,23.02
2017-08-15T23:04:07.590Z,23.05
2017-08-15T23:06:34.996Z,22.99
2017-08-15T23:09:02.392Z,22.87
2017-08-15T23:11:29.783Z,22.54
2017-08-15T23:13:57.188Z,22.30
2017-08-15T23:16:24.578Z,22.30
2017-08-15T23:18:51.979Z,22.36
2017-08-15T23:21:19.368Z,22.37
2017-08-15T23:23:46.774Z,22.32
2017-08-15T23:26:14.160Z,22.37
2017-08-15T23:28:41.560Z,22.38
2017-08-15T23:31:08.951Z,22.42
2017-08-15T23:33:36.342Z,22.43
2017-08-15T23:36:03.734Z,22.46
2017-08-15T23:38:31.128Z,22.50
2017-08-15T23:40:58.510Z,22.50
2017-08-15T23:43:25.903Z,22.50
2017-08-15T23:45:53.295Z,22.53
2017-08-15T23:48:20.695Z,22.50
2017-08-15T23:50:48.079Z,22.46
2017-08-15T23:53:15.475Z,22.43
2017-08-15T23:55:42.867Z,22.50
2017-08-15T23:58:10.268Z,22.47
